Time;durP1;ratioP1;P1;durP2;ratioP2;P2;SDS_P1;SDS_P2;PMS_P1;PMS_P2;Temp;Humidity;BMP_temperature;BMP_pressure;BME280_temperature;BME280_humidity;BME280_pressure;Samples;Min_cycle;Max_cycle;Signal;HPM_P1;HPM_P2
2022/06/28 00:01:52;;;;;;;0.10;0.10;;;13.60;99.90;;;;;;5063875;28;20533;-81
2022/06/28 00:04:19;;;;;;;0.35;0.17;;;13.50;99.90;;;;;;5047373;28;20137;-81
2022/06/28 00:06:47;;;;;;;0.30;0.20;;;13.50;99.90;;;;;;5063414;28;20104;-82
2022/06/28 00:09:14;;;;;;;0.13;0.10;;;13.60;99.90;;;;;;5046905;28;20038;-81
2022/06/28 00:11:42;;;;;;;0.20;0.20;;;13.50;99.90;;;;;;5047348;28;20068;-81
2022/06/28 00:16:58;;;;;;;0.28;0.20;;;13.50;99.90;;;;;;5080228;28;20048;-80
2022/06/28 00:19:25;;;;;;;0.47;0.30;;;13.50;99.90;;;;;;5046990;28;20038;-81
2022/06/28 00:21:51;;;;;;;0.55;0.28;;;13.50;99.90;;;;;;5063562;28;20045;-80
2022/06/28 00:24:18;;;;;;;0.40;0.15;;;13.50;99.90;;;;;;5046898;28;20045;-81
2022/06/28 00:26:46;;;;;;;0.32;0.25;;;13.40;99.90;;;;;;5046966;28;20042;-82
2022/06/28 00:29:13;;;;;;;0.10;0.10;;;13.40;99.90;;;;;;5030308;28;20223;-82
2022/06/28 00:31:40;;;;;;;0.10;0.00;;;13.40;99.90;;;;;;5063490;28;20039;-82
2022/06/28 00:34:07;;;;;;;0.17;0.10;;;13.30;99.90;;;;;;5079884;28;20030;-81
2022/06/28 00:36:34;;;;;;;0.20;0.20;;;13.30;99.90;;;;;;5030819;28;20041;-80
2022/06/28 00:39:01;;;;;;;0.50;0.13;;;13.30;99.90;;;;;;5063140;28;20038;-81
2022/06/28 00:41:28;;;;;;;0.13;0.13;;;13.30;99.90;;;;;;5030673;28;20038;-81
2022/06/28 00:43:55;;;;;;;0.40;0.38;;;13.20;99.90;;;;;;5063125;28;20406;-80
2022/06/28 00:46:22;;;;;;;0.45;0.25;;;13.20;99.90;;;;;;5046888;28;20127;-81
2022/06/28 00:48:49;;;;;;;0.85;0.32;;;13.10;99.90;;;;;;5046356;28;20541;-80
2022/06/28 00:51:16;;;;;;;0.30;0.20;;;13.00;99.90;;;;;;5046439;28;20069;-81
2022/06/28 00:53:42;;;;;;;0.20;0.20;;;13.00;99.90;;;;;;5062819;28;20042;-81
2022/06/28 00:56:09;;;;;;;0.32;0.20;;;13.00;99.90;;;;;;5046537;28;20046;-82
2022/06/28 00:58:36;;;;;;;0.45;0.20;;;13.00;99.90;;;;;;5046679;28;20045;-82
2022/06/28 01:01:03;;;;;;;0.22;0.20;;;13.00;99.90;;;;;;5046280;28;20048;-80
2022/06/28 01:03:29;;;;;;;0.10;0.10;;;12.90;99.90;;;;;;5046283;28;20042;-82
2022/06/28 01:05:56;;;;;;;0.10;0.10;;;12.90;99.90;;;;;;5079530;28;20118;-82
2022/06/28 01:08:23;;;;;;;0.38;0.25;;;12.90;99.90;;;;;;5046047;28;20100;-81
2022/06/28 01:10:49;;;;;;;0.47;0.35;;;12.70;99.90;;;;;;5079388;28;20569;-81
2022/06/28 01:13:16;;;;;;;0.10;0.10;;;12.80;99.90;;;;;;5062470;28;20038;-82
2022/06/28 01:15:43;;;;;;;0.17;0.17;;;12.80;99.90;;;;;;5030297;28;20042;-82
2022/06/28 01:18:11;;;;;;;0.45;0.20;;;12.80;99.90;;;;;;5045734;28;20041;-82
2022/06/28 01:20:42;;;;;;;0.38;0.32;;;12.80;99.90;;;;;;5030252;28;20049;-82
2022/06/28 01:23:08;;;;;;;0.35;0.30;;;12.70;99.90;;;;;;5045801;28;20913;-80
2022/06/28 01:25:36;;;;;;;0.03;0.03;;;12.70;99.90;;;;;;5046576;28;20136;-80
2022/06/28 01:28:05;;;;;;;0.25;0.20;;;12.70;99.90;;;;;;5062264;28;20053;-82
2022/06/28 01:30:32;;;;;;;0.28;0.28;;;12.70;99.90;;;;;;5029960;28;20048;-81
2022/06/28 01:32:58;;;;;;;0.50;0.30;;;12.70;99.90;;;;;;5063192;28;20042;-82
2022/06/28 01:35:25;;;;;;;0.10;0.10;;;12.70;99.90;;;;;;5049591;28;20121;-82
2022/06/28 01:37:52;;;;;;;0.38;0.25;;;12.60;99.90;;;;;;5033265;28;20068;-80
2022/06/28 01:40:18;;;;;;;0.13;0.13;;;12.60;99.90;;;;;;5032991;28;20056;-80
2022/06/28 01:42:45;;;;;;;0.43;0.30;;;12.60;99.90;;;;;;5049562;28;20099;-80
2022/06/28 01:45:14;;;;;;;0.10;0.10;;;12.60;99.90;;;;;;5065948;28;20041;-82
2022/06/28 01:47:44;;;;;;;0.35;0.32;;;12.60;99.90;;;;;;5099557;28;20042;-80
2022/06/28 01:50:11;;;;;;;0.20;0.20;;;12.50;99.90;;;;;;5082468;28;20042;-79
2022/06/28 01:52:41;;;;;;;0.50;0.40;;;12.50;99.90;;;;;;5033243;28;20052;-81
2022/06/28 01:55:08;;;;;;;0.25;0.25;;;12.50;99.90;;;;;;5049280;28;20124;-80
2022/06/28 01:57:35;;;;;;;0.20;0.20;;;12.50;99.90;;;;;;5029159;28;20125;-80
2022/06/28 02:00:03;;;;;;;0.20;0.20;;;12.40;99.90;;;;;;5029784;28;20084;-80
2022/06/28 02:02:30;;;;;;;0.30;0.20;;;12.40;99.90;;;;;;5029335;28;20041;-80
2022/06/28 02:04:57;;;;;;;0.45;0.22;;;12.40;99.90;;;;;;5029967;28;20125;-80
2022/06/28 02:07:23;;;;;;;0.30;0.30;;;12.40;99.90;;;;;;5033382;28;20042;-80
2022/06/28 02:09:50;;;;;;;0.50;0.43;;;12.40;99.90;;;;;;5017424;28;20113;-81
2022/06/28 02:12:17;;;;;;;0.17;0.17;;;12.40;99.90;;;;;;5033132;28;20403;-80
2022/06/28 02:14:44;;;;;;;0.60;0.50;;;12.40;99.90;;;;;;5033292;28;20042;-79
2022/06/28 02:17:12;;;;;;;0.40;0.20;;;12.30;99.90;;;;;;5033454;28;20042;-81
2022/06/28 02:19:38;;;;;;;0.22;0.15;;;12.30;99.90;;;;;;5017142;28;20053;-81
2022/06/28 02:22:05;;;;;;;0.20;0.20;;;12.30;99.90;;;;;;5016808;28;20461;-81
2022/06/28 02:24:32;;;;;;;0.35;0.30;;;12.40;99.90;;;;;;5033235;28;20050;-80
2022/06/28 02:26:59;;;;;;;1.38;0.40;;;12.30;99.90;;;;;;5032803;28;20038;-81
2022/06/28 02:29:25;;;;;;;0.38;0.20;;;12.30;99.90;;;;;;5016388;28;20411;-80
2022/06/28 02:31:52;;;;;;;0.10;0.10;;;12.40;99.90;;;;;;5016448;28;20123;-81
2022/06/28 02:42:34;;;;;;;0.32;0.30;;;12.30;99.90;;;;;;5062912;28;20057;-80
2022/06/28 02:45:01;;;;;;;0.30;0.20;;;12.30;99.90;;;;;;5049082;28;20743;-80
2022/06/28 02:47:28;;;;;;;0.47;0.22;;;12.30;99.90;;;;;;5048657;28;20053;-81
2022/06/28 02:49:54;;;;;;;0.98;0.38;;;12.20;99.90;;;;;;5048769;28;20084;-81
2022/06/28 02:52:21;;;;;;;0.20;0.15;;;12.30;99.90;;;;;;5032073;28;20135;-80
2022/06/28 02:54:48;;;;;;;0.28;0.20;;;12.20;99.90;;;;;;5064717;28;20046;-80
2022/06/28 02:57:14;;;;;;;0.30;0.30;;;12.20;99.90;;;;;;5048500;28;20049;-80
2022/06/28 02:59:41;;;;;;;0.00;0.00;;;12.20;99.90;;;;;;5048000;28;20112;-80
2022/06/28 03:02:08;;;;;;;0.10;0.10;;;12.20;99.90;;;;;;5047909;28;20046;-81
2022/06/28 03:04:34;;;;;;;0.10;0.10;;;12.20;99.90;;;;;;5048084;28;20045;-81
2022/06/28 03:07:01;;;;;;;0.40;0.30;;;12.20;99.90;;;;;;5048169;28;20042;-81
2022/06/28 03:09:28;;;;;;;0.10;0.10;;;12.20;99.90;;;;;;5031638;28;20052;-81
2022/06/28 03:11:54;;;;;;;0.13;0.13;;;12.20;99.90;;;;;;5047939;28;20041;-80
2022/06/28 03:14:21;;;;;;;0.10;0.10;;;12.20;99.90;;;;;;5065010;28;20042;-81
2022/06/28 03:16:48;;;;;;;0.55;0.30;;;12.20;99.90;;;;;;5064637;28;20040;-81
2022/06/28 03:19:14;;;;;;;0.20;0.20;;;12.10;99.90;;;;;;5048201;28;20092;-80
2022/06/28 03:21:41;;;;;;;0.10;0.10;;;12.10;99.90;;;;;;5064076;28;20130;-79
2022/06/28 03:24:08;;;;;;;0.25;0.20;;;12.10;99.90;;;;;;5048338;28;20042;-80
2022/06/28 03:26:34;;;;;;;0.52;0.30;;;12.10;99.90;;;;;;5047730;28;20438;-79
2022/06/28 03:29:01;;;;;;;0.30;0.28;;;12.10;99.90;;;;;;5047787;28;20495;-81
2022/06/28 03:31:28;;;;;;;0.20;0.20;;;12.10;99.90;;;;;;5031474;28;20057;-81
2022/06/28 03:33:55;;;;;;;0.20;0.20;;;12.10;99.90;;;;;;5064612;28;20049;-81
2022/06/28 03:36:22;;;;;;;0.15;0.15;;;12.10;99.90;;;;;;5064291;28;20399;-81
2022/06/28 03:38:49;;;;;;;0.10;0.10;;;12.10;99.90;;;;;;5064429;28;20510;-80
2022/06/28 03:41:22;;;;;;;0.10;0.10;;;12.10;99.90;;;;;;5047512;28;20530;-80
2022/06/28 03:43:50;;;;;;;0.55;0.43;;;12.10;99.90;;;;;;5046690;28;20085;-81
2022/06/28 03:46:16;;;;;;;0.10;0.10;;;12.10;99.90;;;;;;5047665;28;20044;-80
2022/06/28 03:48:44;;;;;;;0.43;0.10;;;12.10;99.90;;;;;;5047500;28;20128;-79
2022/06/28 03:51:11;;;;;;;0.10;0.10;;;12.10;99.90;;;;;;5047879;28;20034;-79
2022/06/28 03:53:38;;;;;;;0.32;0.22;;;12.00;99.90;;;;;;5031002;28;20069;-80
2022/06/28 03:56:05;;;;;;;0.47;0.40;;;12.10;99.90;;;;;;5047971;28;20048;-81
2022/06/28 03:58:33;;;;;;;0.20;0.20;;;12.00;99.90;;;;;;5080786;28;20049;-80
2022/06/28 04:01:00;;;;;;;0.20;0.20;;;12.00;99.90;;;;;;5063728;28;20042;-79
2022/06/28 04:03:26;;;;;;;0.45;0.30;;;12.00;99.90;;;;;;5047027;28;20495;-81
2022/06/28 04:05:53;;;;;;;0.22;0.20;;;12.10;99.90;;;;;;5063527;28;20104;-80
2022/06/28 04:08:20;;;;;;;0.15;0.15;;;12.10;99.90;;;;;;5031290;28;20038;-79
2022/06/28 04:10:48;;;;;;;0.45;0.28;;;12.10;99.90;;;;;;5047134;28;20038;-80
2022/06/28 04:13:14;;;;;;;0.20;0.20;;;12.20;99.90;;;;;;5063314;28;20049;-79
2022/06/28 04:15:41;;;;;;;0.30;0.30;;;12.30;99.90;;;;;;5047502;28;20053;-81
2022/06/28 04:18:08;;;;;;;0.10;0.10;;;12.30;99.90;;;;;;5047124;28;20446;-81
2022/06/28 04:20:36;;;;;;;0.20;0.20;;;12.30;99.90;;;;;;5046875;28;20507;-81
2022/06/28 04:23:02;;;;;;;0.20;0.20;;;12.40;99.90;;;;;;5046586;28;20045;-80
2022/06/28 04:25:29;;;;;;;0.43;0.20;;;12.40;99.90;;;;;;5046903;28;20149;-80
2022/06/28 04:27:56;;;;;;;1.02;0.60;;;12.40;99.90;;;;;;5046030;28;20057;-81
2022/06/28 04:30:25;;;;;;;0.10;0.10;;;12.50;99.90;;;;;;5063530;28;20046;-80
2022/06/28 04:32:51;;;;;;;0.15;0.15;;;12.50;99.90;;;;;;5062592;28;20046;-81
2022/06/28 04:35:18;;;;;;;0.15;0.15;;;12.60;99.90;;;;;;5063255;28;20068;-79
2022/06/28 04:37:45;;;;;;;0.00;0.00;;;12.60;99.90;;;;;;5062831;28;20042;-80
2022/06/28 04:40:12;;;;;;;0.30;0.20;;;12.70;99.90;;;;;;5046818;28;20081;-80
2022/06/28 04:42:38;;;;;;;0.10;0.10;;;12.70;99.90;;;;;;5029977;28;20495;-81
2022/06/28 04:45:05;;;;;;;0.43;0.20;;;12.80;99.90;;;;;;5046599;28;20052;-81
2022/06/28 04:47:32;;;;;;;0.63;0.22;;;12.80;99.90;;;;;;5062917;28;20067;-80
2022/06/28 04:49:59;;;;;;;0.10;0.10;;;12.80;99.90;;;;;;5046302;28;20041;-80
2022/06/28 04:52:25;;;;;;;0.20;0.10;;;12.80;99.90;;;;;;5046627;28;20046;-80
2022/06/28 04:54:52;;;;;;;0.30;0.30;;;12.90;99.90;;;;;;5062966;28;20446;-79
2022/06/28 04:57:19;;;;;;;0.20;0.20;;;12.80;99.90;;;;;;5046531;28;20513;-81
2022/06/28 04:59:46;;;;;;;0.13;0.13;;;12.90;99.90;;;;;;5035193;28;20065;-81
2022/06/28 05:02:12;;;;;;;0.38;0.15;;;12.90;99.90;;;;;;5020149;28;20045;-81
2022/06/28 05:04:39;;;;;;;0.25;0.20;;;12.90;99.90;;;;;;5047671;28;20099;-81
2022/06/28 05:07:06;;;;;;;0.20;0.10;;;12.90;99.90;;;;;;5044873;28;20175;-80
2022/06/28 05:09:32;;;;;;;0.47;0.20;;;12.90;99.90;;;;;;5017378;28;20033;-80
2022/06/28 05:11:59;;;;;;;0.20;0.20;;;13.00;99.90;;;;;;5032697;28;20565;-80
2022/06/28 05:14:26;;;;;;;0.25;0.22;;;13.00;99.90;;;;;;5059795;28;20399;-80
2022/06/28 05:16:53;;;;;;;0.30;0.30;;;13.10;99.90;;;;;;5079725;28;20049;-80
2022/06/28 05:19:20;;;;;;;0.22;0.22;;;13.10;99.90;;;;;;5058621;28;20037;-81
2022/06/28 05:21:47;;;;;;;1.55;0.40;;;13.10;99.90;;;;;;5022429;28;20045;-79
2022/06/28 05:24:13;;;;;;;0.10;0.10;;;13.20;99.90;;;;;;5041708;28;20053;-80
2022/06/28 05:26:40;;;;;;;0.28;0.17;;;13.20;99.90;;;;;;5027695;28;20503;-80
2022/06/28 05:29:07;;;;;;;0.15;0.10;;;13.20;99.90;;;;;;5030832;28;20089;-80
2022/06/28 05:31:33;;;;;;;0.32;0.28;;;13.30;99.90;;;;;;5022402;28;20061;-81
2022/06/28 05:34:00;;;;;;;0.00;0.00;;;13.30;99.90;;;;;;5033443;28;20053;-79
2022/06/28 05:36:27;;;;;;;0.17;0.17;;;13.40;99.90;;;;;;5026454;28;20041;-81
2022/06/28 05:38:54;;;;;;;0.30;0.13;;;13.50;99.90;;;;;;5049534;28;20380;-81
2022/06/28 05:41:20;;;;;;;0.30;0.30;;;13.50;99.90;;;;;;5036221;28;20124;-81
2022/06/28 05:43:47;;;;;;;0.10;0.10;;;13.60;99.90;;;;;;5053321;28;20046;-81
2022/06/28 05:46:14;;;;;;;0.68;0.22;;;13.60;99.90;;;;;;5036921;28;20033;-80
2022/06/28 05:48:41;;;;;;;0.45;0.22;;;13.70;99.90;;;;;;5033931;28;20096;-80
2022/06/28 05:51:07;;;;;;;0.22;0.10;;;13.70;99.90;;;;;;5048152;28;20048;-81
2022/06/28 05:53:34;;;;;;;0.22;0.20;;;13.80;99.90;;;;;;5053479;28;20491;-80
2022/06/28 05:56:01;;;;;;;0.20;0.20;;;13.90;99.90;;;;;;5018936;28;20049;-80
2022/06/28 05:58:27;;;;;;;0.35;0.30;;;13.90;99.90;;;;;;5050013;28;20041;-80
2022/06/28 06:00:54;;;;;;;0.10;0.10;;;14.00;99.90;;;;;;5068889;28;20038;-80
2022/06/28 06:03:21;;;;;;;0.10;0.10;;;14.10;99.90;;;;;;5042303;28;20046;-80
2022/06/28 06:05:48;;;;;;;0.28;0.20;;;14.20;99.90;;;;;;5033166;28;20049;-80
2022/06/28 06:08:15;;;;;;;0.17;0.13;;;14.20;99.90;;;;;;5016694;28;20042;-81
2022/06/28 06:10:42;;;;;;;0.20;0.20;;;14.20;99.90;;;;;;5049317;28;20073;-81
2022/06/28 06:13:08;;;;;;;0.00;0.00;;;14.30;99.90;;;;;;5049541;28;20045;-80
2022/06/28 06:15:35;;;;;;;0.10;0.10;;;14.30;99.90;;;;;;5049221;28;20042;-79
2022/06/28 06:18:02;;;;;;;0.10;0.10;;;14.50;99.90;;;;;;5049289;28;20187;-81
2022/06/28 06:20:28;;;;;;;0.10;0.10;;;14.50;99.90;;;;;;5049264;28;20045;-81
2022/06/28 06:22:55;;;;;;;0.60;0.38;;;14.60;99.90;;;;;;5055721;28;20042;-79
2022/06/28 06:25:22;;;;;;;0.10;0.10;;;14.80;99.90;;;;;;5023090;28;20117;-79
2022/06/28 06:27:48;;;;;;;0.22;0.17;;;14.90;99.90;;;;;;5038977;28;20149;-79
2022/06/28 06:30:15;;;;;;;0.10;0.10;;;15.00;99.90;;;;;;5039924;28;20467;-80
2022/06/28 06:32:42;;;;;;;0.32;0.32;;;15.10;99.90;;;;;;5049740;28;20034;-80
2022/06/28 06:35:09;;;;;;;0.25;0.10;;;15.20;99.90;;;;;;5031640;28;20049;-80
2022/06/28 06:37:36;;;;;;;0.38;0.15;;;15.30;99.90;;;;;;5019258;28;20120;-80
2022/06/28 06:40:03;;;;;;;0.82;0.22;;;15.40;99.90;;;;;;5033825;28;20100;-79
2022/06/28 06:42:30;;;;;;;0.30;0.22;;;15.50;99.90;;;;;;5020543;28;20124;-81
2022/06/28 06:44:58;;;;;;;0.40;0.20;;;15.50;99.90;;;;;;5080416;28;20116;-79
2022/06/28 06:47:25;;;;;;;0.32;0.20;;;15.70;99.90;;;;;;5033211;28;20044;-79
2022/06/28 06:49:51;;;;;;;0.20;0.17;;;15.80;99.90;;;;;;5047629;28;20034;-79
2022/06/28 06:52:18;;;;;;;0.08;0.08;;;15.90;99.90;;;;;;5063471;28;20049;-80
2022/06/28 06:54:45;;;;;;;0.32;0.28;;;16.00;99.90;;;;;;5063954;28;20046;-81
2022/06/28 06:57:11;;;;;;;0.47;0.20;;;16.10;99.90;;;;;;5046940;28;20499;-80
2022/06/28 06:59:38;;;;;;;0.20;0.20;;;16.20;99.90;;;;;;5047207;28;20046;-79
2022/06/28 07:02:05;;;;;;;0.32;0.22;;;16.30;99.90;;;;;;5040060;28;20370;-79
2022/06/28 07:04:31;;;;;;;0.52;0.40;;;16.30;99.90;;;;;;5010998;28;20085;-80
2022/06/28 07:06:58;;;;;;;0.52;0.30;;;16.50;99.90;;;;;;5043312;28;20813;-80
2022/06/28 07:09:25;;;;;;;0.60;0.35;;;16.60;99.90;;;;;;5054189;28;20072;-79
2022/06/28 07:11:51;;;;;;;0.20;0.20;;;16.70;99.90;;;;;;5013802;28;20517;-79
2022/06/28 07:14:18;;;;;;;0.20;0.20;;;16.80;99.90;;;;;;5011033;28;20550;-81
2022/06/28 07:16:45;;;;;;;0.20;0.20;;;16.90;99.90;;;;;;5046296;28;20569;-81
2022/06/28 07:19:13;;;;;;;1.67;0.60;;;17.00;99.90;;;;;;5032280;28;20111;-82
2022/06/28 07:21:40;;;;;;;0.28;0.28;;;17.00;99.90;;;;;;5018583;28;20483;-80
2022/06/28 07:24:09;;;;;;;0.25;0.25;;;17.00;99.90;;;;;;5030939;28;20036;-83
2022/06/28 07:26:36;;;;;;;0.73;0.30;;;16.90;99.90;;;;;;5030932;28;20114;-80
2022/06/28 07:29:04;;;;;;;0.03;0.03;;;16.90;99.90;;;;;;4996865;28;1085333;-81
2022/06/28 07:31:30;;;;;;;0.55;0.35;;;16.90;99.90;;;;;;5056123;28;20042;-81
2022/06/28 07:33:58;;;;;;;0.17;0.17;;;16.80;99.90;;;;;;5064292;28;20064;-80
2022/06/28 07:36:25;;;;;;;0.85;0.57;;;16.80;99.90;;;;;;5082279;28;20593;-79
2022/06/28 07:38:54;;;;;;;0.05;0.05;;;16.80;99.90;;;;;;5056268;28;20495;-82
2022/06/28 07:41:24;;;;;;;0.20;0.20;;;16.70;99.90;;;;;;5016915;28;20096;-80
2022/06/28 07:43:51;;;;;;;1.42;0.50;;;16.90;99.90;;;;;;5046512;28;20038;-83
2022/06/28 07:46:19;;;;;;;0.20;0.20;;;16.90;99.90;;;;;;5048748;28;20112;-80
2022/06/28 07:48:46;;;;;;;0.20;0.20;;;17.00;99.90;;;;;;5043144;28;20038;-83
2022/06/28 07:53:59;;;;;;;0.10;0.10;;;17.50;99.90;;;;;;5075529;28;20545;-82
2022/06/28 07:56:25;;;;;;;0.20;0.20;;;17.60;99.90;;;;;;5022410;28;20042;-83
2022/06/28 07:58:52;;;;;;;0.30;0.30;;;17.80;99.90;;;;;;5051005;28;20045;-83
2022/06/28 08:01:19;;;;;;;0.10;0.10;;;18.00;99.90;;;;;;5026618;28;20077;-80
2022/06/28 08:03:46;;;;;;;0.75;0.43;;;18.10;99.90;;;;;;5013701;28;20045;-83
2022/06/28 08:06:13;;;;;;;0.20;0.10;;;18.20;99.90;;;;;;5025626;28;20049;-83
2022/06/28 08:08:40;;;;;;;0.20;0.20;;;18.10;99.90;;;;;;5050177;28;20033;-83
2022/06/28 08:11:09;;;;;;;0.25;0.20;;;18.10;99.90;;;;;;5014037;28;20038;-83
2022/06/28 08:13:37;;;;;;;0.20;0.20;;;18.00;99.90;;;;;;5035326;28;20422;-80
2022/06/28 08:16:04;;;;;;;0.20;0.20;;;18.00;99.90;;;;;;5050120;28;20060;-85
2022/06/28 08:18:31;;;;;;;0.35;0.32;;;18.00;99.90;;;;;;5029844;28;20472;-83
2022/06/28 08:20:58;;;;;;;0.40;0.30;;;17.80;99.90;;;;;;5030610;28;20128;-83
2022/06/28 08:23:25;;;;;;;0.52;0.30;;;17.70;99.90;;;;;;5062077;28;20042;-83
2022/06/28 08:25:52;;;;;;;0.30;0.20;;;17.70;99.90;;;;;;5044412;28;20404;-83
2022/06/28 08:28:18;;;;;;;0.20;0.20;;;17.60;99.90;;;;;;5023230;28;20136;-79
2022/06/28 08:30:45;;;;;;;0.00;0.00;;;17.70;99.90;;;;;;5049301;28;20049;-83
2022/06/28 08:33:12;;;;;;;0.30;0.20;;;17.90;99.90;;;;;;5041686;28;20409;-80
2022/06/28 08:35:39;;;;;;;0.17;0.10;;;18.10;99.90;;;;;;5012843;28;20054;-80
2022/06/28 08:38:06;;;;;;;0.10;0.10;;;18.30;99.90;;;;;;5010682;28;20407;-84
2022/06/28 08:40:33;;;;;;;0.65;0.22;;;18.50;99.90;;;;;;5056562;28;20549;-81
2022/06/28 08:43:01;;;;;;;0.63;0.40;;;18.70;99.90;;;;;;5029996;28;20042;-80
2022/06/28 08:45:28;;;;;;;0.70;0.43;;;18.80;99.90;;;;;;5040960;28;20041;-80
2022/06/28 08:47:57;;;;;;;0.10;0.10;;;18.90;99.90;;;;;;5033944;28;20073;-83
2022/06/28 08:50:31;;;;;;;0.10;0.10;;;19.20;99.90;;;;;;5044170;28;20049;-84
2022/06/28 08:53:01;;;;;;;1.20;0.35;;;19.20;99.90;;;;;;5079804;28;20049;-80
2022/06/28 08:55:30;;;;;;;0.30;0.20;;;19.20;99.90;;;;;;5030275;28;20392;-79
2022/06/28 08:57:59;;;;;;;0.10;0.10;;;19.30;99.90;;;;;;5057400;28;20494;-83
2022/06/28 09:00:26;;;;;;;0.17;0.17;;;19.20;99.90;;;;;;5049143;28;20038;-84
2022/06/28 09:02:53;;;;;;;0.55;0.28;;;19.10;99.90;;;;;;5030636;28;20045;-80
2022/06/28 09:05:25;;;;;;;0.20;0.20;;;18.80;99.90;;;;;;5046788;28;20042;-80
2022/06/28 09:07:54;;;;;;;1.02;0.40;;;18.60;99.90;;;;;;5010617;28;20045;-84
2022/06/28 09:10:21;;;;;;;0.10;0.10;;;18.60;99.90;;;;;;5042674;28;20448;-84
2022/06/28 09:12:56;;;;;;;0.45;0.30;;;18.70;99.90;;;;;;5042889;28;20038;-84
2022/06/28 09:15:24;;;;;;;0.10;0.10;;;18.70;99.90;;;;;;5048948;28;20507;-85
2022/06/28 09:17:55;;;;;;;0.30;0.20;;;18.70;99.90;;;;;;5043188;28;20039;-80
2022/06/28 09:20:37;;;;;;;0.20;0.20;;;18.70;99.90;;;;;;5042799;28;20050;-80
2022/06/28 09:23:19;;;;;;;0.20;0.20;;;18.90;99.90;;;;;;5014738;28;20495;-84
2022/06/28 09:25:47;;;;;;;0.20;0.20;;;19.10;99.90;;;;;;5033448;28;20402;-84
2022/06/28 09:28:29;;;;;;;0.20;0.20;;;19.50;99.90;;;;;;5049599;28;20092;-80
2022/06/28 09:31:15;;;;;;;1.65;0.17;;;19.50;99.90;;;;;;5049124;28;20041;-84
2022/06/28 09:33:44;;;;;;;0.10;0.10;;;19.60;99.90;;;;;;5044851;28;20042;-84
2022/06/28 09:36:15;;;;;;;0.10;0.10;;;19.60;99.90;;;;;;5050613;28;20070;-85
2022/06/28 09:38:42;;;;;;;1.75;0.30;;;19.60;99.90;;;;;;5028212;28;20042;-84
2022/06/28 09:41:24;;;;;;;0.13;0.13;;;19.80;99.90;;;;;;5013540;28;20072;-80
2022/06/28 09:44:03;;;;;;;0.20;0.20;;;20.00;99.90;;;;;;5029566;28;20041;-84
2022/06/28 09:46:32;;;;;;;1.52;0.20;;;20.20;99.90;;;;;;5026933;28;20045;-80
2022/06/28 09:49:02;;;;;;;0.13;0.13;;;20.20;99.90;;;;;;5049509;28;20041;-81
2022/06/28 09:51:30;;;;;;;0.10;0.10;;;20.30;99.90;;;;;;5060675;28;20148;-81
2022/06/28 09:54:06;;;;;;;0.20;0.20;;;20.40;99.90;;;;;;5045782;28;20073;-81
2022/06/28 09:56:36;;;;;;;0.10;0.10;;;20.60;99.90;;;;;;5029998;28;20045;-85
2022/06/28 09:59:04;;;;;;;0.10;0.10;;;20.60;99.90;;;;;;5029482;28;20060;-83
2022/06/28 10:01:30;;;;;;;0.20;0.20;;;20.80;99.90;;;;;;5027374;28;20045;-80
2022/06/28 10:03:58;;;;;;;0.10;0.10;;;20.70;99.90;;;;;;5032873;28;20080;-85
2022/06/28 10:06:25;;;;;;;0.20;0.20;;;20.80;99.90;;;;;;5053233;28;20063;-85
2022/06/28 10:08:52;;;;;;;0.20;0.20;;;20.90;99.90;;;;;;5062669;28;20125;-85
2022/06/28 10:11:19;;;;;;;0.60;0.30;;;21.10;99.90;;;;;;5045430;28;20132;-85
2022/06/28 10:17:04;;;;;;;0.43;0.20;;;21.20;99.90;;;;;;5049418;28;20054;-80
2022/06/28 10:19:33;;;;;;;1.73;0.43;;;21.20;99.90;;;;;;5029390;28;20457;-80
2022/06/28 10:22:11;;;;;;;0.10;0.10;;;21.10;99.90;;;;;;5010051;28;20042;-85
2022/06/28 10:24:59;;;;;;;0.15;0.15;;;21.20;99.90;;;;;;5042370;28;20145;-80
2022/06/28 10:27:28;;;;;;;0.25;0.25;;;20.90;99.90;;;;;;5045948;28;20044;-84
2022/06/28 11:05:13;;;;;;;0.25;0.25;;;21.90;99.90;;;;;;5030607;28;20165;-84
2022/06/28 11:07:42;;;;;;;0.10;0.10;;;22.10;99.90;;;;;;5003188;28;20186;-84
2022/06/28 11:10:16;;;;;;;0.10;0.10;;;22.10;99.90;;;;;;5036045;28;20049;-80
2022/06/28 11:12:43;;;;;;;0.45;0.35;;;22.20;99.90;;;;;;5034591;28;20040;-84
2022/06/28 11:15:11;;;;;;;0.43;0.20;;;22.50;99.90;;;;;;5019649;28;20044;-80
2022/06/28 11:17:44;;;;;;;0.20;0.20;;;22.20;99.90;;;;;;5035180;28;20045;-84
2022/06/28 11:20:21;;;;;;;0.25;0.20;;;22.30;99.90;;;;;;5035656;28;20048;-84
2022/06/28 11:22:49;;;;;;;0.10;0.10;;;22.60;99.90;;;;;;5035060;28;20065;-80
2022/06/28 11:25:18;;;;;;;0.20;0.20;;;22.70;99.90;;;;;;5035483;28;20142;-81
2022/06/28 11:27:54;;;;;;;0.20;0.20;;;22.70;99.90;;;;;;5034975;28;20057;-81
2022/06/28 11:30:27;;;;;;;0.65;0.10;;;22.70;99.90;;;;;;5035295;28;20049;-84
2022/06/28 11:40:51;;;;;;;0.20;0.20;;;22.20;99.90;;;;;;5049036;28;20070;-84
2022/06/28 11:43:20;;;;;;;0.52;0.15;;;22.40;99.90;;;;;;5031216;28;20038;-82
2022/06/28 11:45:49;;;;;;;0.30;0.30;;;22.50;99.90;;;;;;5031630;28;20049;-80
2022/06/28 11:48:17;;;;;;;0.10;0.10;;;22.50;99.90;;;;;;5030931;28;20085;-81
2022/06/28 11:50:46;;;;;;;0.15;0.15;;;22.60;99.90;;;;;;5047791;28;20046;-81
2022/06/28 11:53:14;;;;;;;0.10;0.10;;;22.60;99.90;;;;;;5031062;28;20046;-81
2022/06/28 11:56:02;;;;;;;0.30;0.30;;;22.70;99.90;;;;;;5031240;28;20072;-82
2022/06/28 11:58:38;;;;;;;0.10;0.10;;;22.80;99.90;;;;;;5030644;28;20431;-82
2022/06/28 12:01:13;;;;;;;0.20;0.20;;;22.70;99.90;;;;;;5030638;28;20038;-80
2022/06/28 12:03:42;;;;;;;;;;;22.30;99.90;;;;;;5047884;28;20132;-80
2022/06/28 12:06:10;;;;;;;0.10;0.10;;;22.00;99.90;;;;;;5014909;28;19980;-83
2022/06/28 12:08:44;;;;;;;0.20;0.20;;;21.90;99.90;;;;;;5018627;28;20034;-81
2022/06/28 12:11:31;;;;;;;0.10;0.10;;;22.00;99.90;;;;;;5034151;28;20059;-80
2022/06/28 12:13:58;;;;;;;0.10;0.10;;;22.20;99.90;;;;;;5034425;28;20044;-84
2022/06/28 12:16:46;;;;;;;0.47;0.13;;;22.50;99.90;;;;;;5034311;28;20046;-85
2022/06/28 12:19:15;;;;;;;0.20;0.20;;;22.70;99.90;;;;;;5034171;28;20041;-83
2022/06/28 12:22:09;;;;;;;0.20;0.20;;;22.90;99.90;;;;;;5034271;28;20498;-84
2022/06/28 12:24:56;;;;;;;0.20;0.13;;;22.60;99.90;;;;;;5034073;28;20050;-83
2022/06/28 12:27:30;;;;;;;0.20;0.20;;;22.70;99.90;;;;;;5033873;28;20042;-80
2022/06/28 12:29:59;;;;;;;0.15;0.15;;;22.90;99.90;;;;;;5034131;28;20049;-82
2022/06/28 12:32:27;;;;;;;0.20;0.20;;;23.10;99.90;;;;;;5050109;28;20041;-82
2022/06/28 12:35:04;;;;;;;0.22;0.20;;;23.20;99.10;;;;;;5033919;28;20053;-83
2022/06/28 12:37:31;;;;;;;0.20;0.10;;;23.20;99.00;;;;;;5034038;28;20037;-83
2022/06/28 12:39:59;;;;;;;0.20;0.20;;;23.30;99.90;;;;;;5086523;28;20045;-80
2022/06/28 12:42:27;;;;;;;0.22;0.22;;;23.40;95.30;;;;;;5086298;28;20037;-81
2022/06/28 12:44:55;;;;;;;0.17;0.10;;;23.50;99.10;;;;;;5037058;28;20520;-80
2022/06/28 12:47:22;;;;;;;0.10;0.10;;;23.70;99.20;;;;;;5018529;28;20117;-82
2022/06/28 12:49:49;;;;;;;0.10;0.10;;;23.70;99.90;;;;;;5014150;28;20085;-80
2022/06/28 12:52:15;;;;;;;0.10;0.10;;;23.40;98.60;;;;;;5036220;28;20036;-82
2022/06/28 12:54:42;;;;;;;0.20;0.20;;;23.40;99.40;;;;;;5034532;28;20040;-80
2022/06/28 12:57:09;;;;;;;0.20;0.20;;;23.40;96.50;;;;;;5013398;28;20042;-81
2022/06/28 12:59:36;;;;;;;0.10;0.10;;;23.60;97.40;;;;;;5014221;28;20487;-80
2022/06/28 13:02:03;;;;;;;0.20;0.13;;;23.80;98.40;;;;;;5049525;28;20508;-81
2022/06/28 13:04:29;;;;;;;0.47;0.30;;;24.00;99.90;;;;;;5065876;28;20434;-81
2022/06/28 13:06:56;;;;;;;0.15;0.15;;;23.90;95.80;;;;;;5044088;28;20045;-83
2022/06/28 13:09:23;;;;;;;0.28;0.20;;;24.00;97.60;;;;;;5049481;28;20049;-83
2022/06/28 13:11:49;;;;;;;0.30;0.20;;;23.90;98.50;;;;;;5033893;28;20079;-84
2022/06/28 13:14:16;;;;;;;0.05;0.05;;;24.00;98.60;;;;;;5027105;28;20045;-83
2022/06/28 13:16:43;;;;;;;0.10;0.10;;;24.00;99.10;;;;;;5017138;28;20407;-84
2022/06/28 13:19:09;;;;;;;0.15;0.15;;;24.00;96.70;;;;;;5017257;28;20439;-83
2022/06/28 13:21:36;;;;;;;0.10;0.10;;;23.90;96.00;;;;;;5029576;28;20045;-82
2022/06/28 13:24:03;;;;;;;0.32;0.20;;;23.90;98.30;;;;;;5046154;28;20037;-84
2022/06/28 13:26:30;;;;;;;0.47;0.25;;;23.90;96.00;;;;;;5037368;28;20041;-82
2022/06/28 13:28:57;;;;;;;0.45;0.35;;;23.80;94.80;;;;;;5052915;28;20106;-85
2022/06/28 13:31:23;;;;;;;0.28;0.28;;;23.60;95.60;;;;;;5020745;28;20550;-83
2022/06/28 13:33:50;;;;;;;0.10;0.10;;;23.40;93.20;;;;;;5017384;28;20059;-81
2022/06/28 13:36:17;;;;;;;0.20;0.20;;;23.10;95.70;;;;;;5018138;28;20036;-81
2022/06/28 13:38:44;;;;;;;0.20;0.20;;;22.80;97.30;;;;;;5033108;28;20096;-81
2022/06/28 13:41:20;;;;;;;0.10;0.10;;;22.60;99.00;;;;;;5032704;28;20402;-81
2022/06/28 13:43:46;;;;;;;0.55;0.20;;;22.80;98.40;;;;;;5032938;28;20045;-81
2022/06/28 13:46:13;;;;;;;0.65;0.30;;;22.90;99.10;;;;;;5016875;28;20398;-80
2022/06/28 13:48:40;;;;;;;0.30;0.30;;;23.10;98.60;;;;;;5033401;28;20056;-81
2022/06/28 13:51:07;;;;;;;0.30;0.28;;;23.30;99.20;;;;;;5065812;28;20128;-81
2022/06/28 13:53:38;;;;;;;0.10;0.10;;;23.50;97.30;;;;;;5068914;28;20074;-80